sensor_id;sensor_type;location;lat;lon;timestamp;P1;durP1;ratioP1;P2;durP2;ratioP2
37785;SDS011;23625;48.784;9.336;2023-08-06T00:02:04;14.50;;;6.65;;
37785;SDS011;23625;48.784;9.336;2023-08-06T00:04:30;12.85;;;7.00;;
37785;SDS011;23625;48.784;9.336;2023-08-06T00:06:55;10.20;;;7.20;;
37785;SDS011;23625;48.784;9.336;2023-08-06T00:09:21;13.27;;;7.55;;
37785;SDS011;23625;48.784;9.336;2023-08-06T00:11:47;13.60;;;6.80;;
37785;SDS011;23625;48.784;9.336;2023-08-06T00:14:13;12.23;;;6.60;;
37785;SDS011;23625;48.784;9.336;2023-08-06T00:16:42;10.50;;;6.30;;
37785;SDS011;23625;48.784;9.336;2023-08-06T00:19:08;10.80;;;6.95;;
37785;SDS011;23625;48.784;9.336;2023-08-06T00:21:34;11.27;;;6.30;;
37785;SDS011;23625;48.784;9.336;2023-08-06T00:24:00;11.32;;;6.85;;
37785;SDS011;23625;48.784;9.336;2023-08-06T00:26:25;10.32;;;6.15;;
37785;SDS011;23625;48.784;9.336;2023-08-06T00:28:51;10.07;;;6.72;;
37785;SDS011;23625;48.784;9.336;2023-08-06T00:31:16;10.77;;;6.63;;
37785;SDS011;23625;48.784;9.336;2023-08-06T00:33:42;12.10;;;7.65;;
37785;SDS011;23625;48.784;9.336;2023-08-06T00:36:07;10.73;;;7.18;;
37785;SDS011;23625;48.784;9.336;2023-08-06T00:38:33;10.57;;;6.20;;
37785;SDS011;23625;48.784;9.336;2023-08-06T00:40:59;15.10;;;8.02;;
37785;SDS011;23625;48.784;9.336;2023-08-06T00:43:24;11.88;;;6.05;;
37785;SDS011;23625;48.784;9.336;2023-08-06T00:45:50;10.45;;;6.63;;
37785;SDS011;23625;48.784;9.336;2023-08-06T00:48:16;10.98;;;6.32;;
37785;SDS011;23625;48.784;9.336;2023-08-06T00:50:42;13.75;;;7.13;;
37785;SDS011;23625;48.784;9.336;2023-08-06T00:53:08;10.05;;;6.32;;
37785;SDS011;23625;48.784;9.336;2023-08-06T00:55:34;11.90;;;6.70;;
37785;SDS011;23625;48.784;9.336;2023-08-06T00:57:59;14.68;;;6.30;;
37785;SDS011;23625;48.784;9.336;2023-08-06T01:00:26;10.20;;;6.30;;
37785;SDS011;23625;48.784;9.336;2023-08-06T01:02:52;8.05;;;5.85;;
37785;SDS011;23625;48.784;9.336;2023-08-06T01:05:19;11.40;;;7.13;;
37785;SDS011;23625;48.784;9.336;2023-08-06T01:16:09;11.50;;;6.78;;
37785;SDS011;23625;48.784;9.336;2023-08-06T01:18:36;10.63;;;6.57;;
37785;SDS011;23625;48.784;9.336;2023-08-06T01:21:04;11.85;;;6.00;;
37785;SDS011;23625;48.784;9.336;2023-08-06T01:23:29;10.80;;;6.65;;
37785;SDS011;23625;48.784;9.336;2023-08-06T01:28:28;11.75;;;6.90;;
37785;SDS011;23625;48.784;9.336;2023-08-06T01:31:04;9.95;;;6.97;;
37785;SDS011;23625;48.784;9.336;2023-08-06T01:33:35;9.57;;;7.10;;
37785;SDS011;23625;48.784;9.336;2023-08-06T01:36:03;11.65;;;6.85;;
37785;SDS011;23625;48.784;9.336;2023-08-06T01:38:30;10.45;;;6.82;;
37785;SDS011;23625;48.784;9.336;2023-08-06T01:40:56;12.80;;;6.75;;
37785;SDS011;23625;48.784;9.336;2023-08-06T01:43:21;10.55;;;6.65;;
37785;SDS011;23625;48.784;9.336;2023-08-06T01:45:47;15.82;;;6.88;;
37785;SDS011;23625;48.784;9.336;2023-08-06T01:48:12;10.63;;;6.40;;
37785;SDS011;23625;48.784;9.336;2023-08-06T01:50:38;8.88;;;5.72;;
37785;SDS011;23625;48.784;9.336;2023-08-06T01:53:04;10.57;;;6.03;;
37785;SDS011;23625;48.784;9.336;2023-08-06T01:55:29;9.52;;;5.95;;
37785;SDS011;23625;48.784;9.336;2023-08-06T01:57:55;9.43;;;5.80;;
37785;SDS011;23625;48.784;9.336;2023-08-06T02:00:21;9.20;;;5.63;;
37785;SDS011;23625;48.784;9.336;2023-08-06T02:02:46;10.45;;;5.45;;
37785;SDS011;23625;48.784;9.336;2023-08-06T02:05:12;9.57;;;6.45;;
37785;SDS011;23625;48.784;9.336;2023-08-06T02:07:37;9.75;;;6.00;;
37785;SDS011;23625;48.784;9.336;2023-08-06T02:10:03;9.45;;;6.00;;
37785;SDS011;23625;48.784;9.336;2023-08-06T02:12:29;11.43;;;6.00;;
37785;SDS011;23625;48.784;9.336;2023-08-06T02:14:54;7.18;;;5.35;;
37785;SDS011;23625;48.784;9.336;2023-08-06T02:17:20;6.80;;;5.25;;
37785;SDS011;23625;48.784;9.336;2023-08-06T02:19:45;7.63;;;5.45;;
37785;SDS011;23625;48.784;9.336;2023-08-06T02:22:11;9.02;;;5.28;;
37785;SDS011;23625;48.784;9.336;2023-08-06T02:24:36;8.27;;;4.97;;
37785;SDS011;23625;48.784;9.336;2023-08-06T02:27:02;7.70;;;4.80;;
37785;SDS011;23625;48.784;9.336;2023-08-06T02:29:28;6.95;;;4.85;;
37785;SDS011;23625;48.784;9.336;2023-08-06T02:31:53;8.27;;;4.85;;
37785;SDS011;23625;48.784;9.336;2023-08-06T02:34:19;7.68;;;4.43;;
37785;SDS011;23625;48.784;9.336;2023-08-06T02:36:44;8.15;;;4.25;;
37785;SDS011;23625;48.784;9.336;2023-08-06T02:39:10;6.28;;;4.30;;
37785;SDS011;23625;48.784;9.336;2023-08-06T02:41:36;4.45;;;3.55;;
37785;SDS011;23625;48.784;9.336;2023-08-06T02:44:01;6.88;;;4.63;;
37785;SDS011;23625;48.784;9.336;2023-08-06T02:46:27;10.73;;;4.93;;
37785;SDS011;23625;48.784;9.336;2023-08-06T02:48:53;6.78;;;3.90;;
37785;SDS011;23625;48.784;9.336;2023-08-06T02:51:18;6.85;;;3.83;;
37785;SDS011;23625;48.784;9.336;2023-08-06T02:53:44;7.40;;;4.20;;
37785;SDS011;23625;48.784;9.336;2023-08-06T02:56:10;9.32;;;3.70;;
37785;SDS011;23625;48.784;9.336;2023-08-06T02:58:35;7.03;;;3.97;;
37785;SDS011;23625;48.784;9.336;2023-08-06T03:01:02;6.97;;;3.38;;
37785;SDS011;23625;48.784;9.336;2023-08-06T03:03:29;8.88;;;4.18;;
37785;SDS011;23625;48.784;9.336;2023-08-06T03:05:56;6.97;;;3.75;;
37785;SDS011;23625;48.784;9.336;2023-08-06T03:08:21;6.63;;;3.72;;
37785;SDS011;23625;48.784;9.336;2023-08-06T03:10:48;8.35;;;4.53;;
37785;SDS011;23625;48.784;9.336;2023-08-06T03:13:17;7.32;;;3.80;;
37785;SDS011;23625;48.784;9.336;2023-08-06T03:15:43;5.50;;;3.83;;
37785;SDS011;23625;48.784;9.336;2023-08-06T03:18:16;14.65;;;3.63;;
37785;SDS011;23625;48.784;9.336;2023-08-06T03:20:41;14.43;;;3.85;;
37785;SDS011;23625;48.784;9.336;2023-08-06T03:23:07;4.80;;;3.28;;
37785;SDS011;23625;48.784;9.336;2023-08-06T03:25:35;10.25;;;3.53;;
37785;SDS011;23625;48.784;9.336;2023-08-06T03:28:01;4.93;;;3.17;;
37785;SDS011;23625;48.784;9.336;2023-08-06T03:30:26;6.03;;;3.28;;
37785;SDS011;23625;48.784;9.336;2023-08-06T03:32:52;6.60;;;3.45;;
37785;SDS011;23625;48.784;9.336;2023-08-06T03:35:18;4.28;;;2.72;;
37785;SDS011;23625;48.784;9.336;2023-08-06T03:37:43;6.15;;;3.35;;
37785;SDS011;23625;48.784;9.336;2023-08-06T03:40:09;9.65;;;3.60;;
37785;SDS011;23625;48.784;9.336;2023-08-06T03:42:35;5.60;;;2.83;;
37785;SDS011;23625;48.784;9.336;2023-08-06T03:45:00;6.95;;;3.42;;
37785;SDS011;23625;48.784;9.336;2023-08-06T03:47:26;7.03;;;3.38;;
37785;SDS011;23625;48.784;9.336;2023-08-06T03:49:52;6.55;;;3.40;;
37785;SDS011;23625;48.784;9.336;2023-08-06T03:52:17;8.88;;;3.47;;
37785;SDS011;23625;48.784;9.336;2023-08-06T03:54:43;5.05;;;2.80;;
37785;SDS011;23625;48.784;9.336;2023-08-06T03:57:09;7.05;;;3.17;;
37785;SDS011;23625;48.784;9.336;2023-08-06T03:59:35;5.43;;;3.17;;
37785;SDS011;23625;48.784;9.336;2023-08-06T04:02:01;9.07;;;2.80;;
37785;SDS011;23625;48.784;9.336;2023-08-06T04:04:27;6.82;;;2.80;;
37785;SDS011;23625;48.784;9.336;2023-08-06T04:06:52;8.52;;;4.20;;
37785;SDS011;23625;48.784;9.336;2023-08-06T04:09:18;5.18;;;2.63;;
37785;SDS011;23625;48.784;9.336;2023-08-06T04:11:44;5.38;;;2.80;;
37785;SDS011;23625;48.784;9.336;2023-08-06T04:14:09;6.78;;;2.50;;
37785;SDS011;23625;48.784;9.336;2023-08-06T04:16:35;8.98;;;3.22;;
37785;SDS011;23625;48.784;9.336;2023-08-06T04:19:00;5.00;;;2.40;;
37785;SDS011;23625;48.784;9.336;2023-08-06T04:21:26;8.57;;;3.45;;
37785;SDS011;23625;48.784;9.336;2023-08-06T04:23:52;12.15;;;2.92;;
37785;SDS011;23625;48.784;9.336;2023-08-06T04:26:17;7.13;;;3.03;;
37785;SDS011;23625;48.784;9.336;2023-08-06T04:28:43;6.68;;;2.95;;
37785;SDS011;23625;48.784;9.336;2023-08-06T04:31:08;6.10;;;2.67;;
37785;SDS011;23625;48.784;9.336;2023-08-06T04:33:34;12.18;;;3.28;;
37785;SDS011;23625;48.784;9.336;2023-08-06T04:35:59;7.70;;;2.72;;
37785;SDS011;23625;48.784;9.336;2023-08-06T04:38:25;5.20;;;2.90;;
37785;SDS011;23625;48.784;9.336;2023-08-06T04:40:51;5.82;;;2.42;;
37785;SDS011;23625;48.784;9.336;2023-08-06T04:43:17;10.55;;;3.05;;
37785;SDS011;23625;48.784;9.336;2023-08-06T04:45:46;8.68;;;2.88;;
37785;SDS011;23625;48.784;9.336;2023-08-06T04:48:16;6.68;;;2.78;;
37785;SDS011;23625;48.784;9.336;2023-08-06T04:50:45;7.28;;;2.60;;
37785;SDS011;23625;48.784;9.336;2023-08-06T04:53:11;4.45;;;2.72;;
37785;SDS011;23625;48.784;9.336;2023-08-06T04:55:37;7.60;;;2.60;;
37785;SDS011;23625;48.784;9.336;2023-08-06T04:58:02;4.88;;;2.65;;
37785;SDS011;23625;48.784;9.336;2023-08-06T05:00:28;4.30;;;2.55;;
37785;SDS011;23625;48.784;9.336;2023-08-06T05:02:54;5.78;;;3.03;;
37785;SDS011;23625;48.784;9.336;2023-08-06T05:05:19;6.43;;;2.83;;
37785;SDS011;23625;48.784;9.336;2023-08-06T05:07:47;4.60;;;2.35;;
37785;SDS011;23625;48.784;9.336;2023-08-06T05:10:13;5.82;;;2.65;;
37785;SDS011;23625;48.784;9.336;2023-08-06T05:12:39;6.90;;;2.63;;
37785;SDS011;23625;48.784;9.336;2023-08-06T05:15:05;8.75;;;3.05;;
37785;SDS011;23625;48.784;9.336;2023-08-06T05:17:30;5.60;;;2.63;;
37785;SDS011;23625;48.784;9.336;2023-08-06T05:19:56;6.13;;;2.50;;
37785;SDS011;23625;48.784;9.336;2023-08-06T05:22:21;5.47;;;2.35;;
37785;SDS011;23625;48.784;9.336;2023-08-06T05:24:47;8.15;;;2.30;;
37785;SDS011;23625;48.784;9.336;2023-08-06T05:27:13;3.10;;;1.83;;
37785;SDS011;23625;48.784;9.336;2023-08-06T05:29:38;2.67;;;1.90;;
37785;SDS011;23625;48.784;9.336;2023-08-06T05:32:04;5.03;;;2.35;;
37785;SDS011;23625;48.784;9.336;2023-08-06T05:34:30;3.60;;;1.70;;
37785;SDS011;23625;48.784;9.336;2023-08-06T05:36:55;7.32;;;1.98;;
37785;SDS011;23625;48.784;9.336;2023-08-06T05:39:21;6.90;;;1.73;;
37785;SDS011;23625;48.784;9.336;2023-08-06T05:41:46;6.82;;;2.00;;
37785;SDS011;23625;48.784;9.336;2023-08-06T05:44:12;4.45;;;2.42;;
37785;SDS011;23625;48.784;9.336;2023-08-06T05:46:37;4.78;;;1.75;;
37785;SDS011;23625;48.784;9.336;2023-08-06T05:49:03;5.85;;;1.42;;
37785;SDS011;23625;48.784;9.336;2023-08-06T05:51:30;1.75;;;1.50;;
37785;SDS011;23625;48.784;9.336;2023-08-06T05:53:55;6.13;;;1.83;;
37785;SDS011;23625;48.784;9.336;2023-08-06T05:56:21;3.90;;;1.42;;
37785;SDS011;23625;48.784;9.336;2023-08-06T05:58:46;4.68;;;1.77;;
37785;SDS011;23625;48.784;9.336;2023-08-06T06:01:12;4.35;;;1.50;;
37785;SDS011;23625;48.784;9.336;2023-08-06T06:03:38;3.78;;;1.10;;
37785;SDS011;23625;48.784;9.336;2023-08-06T06:06:03;5.80;;;1.50;;
37785;SDS011;23625;48.784;9.336;2023-08-06T06:08:29;4.10;;;1.20;;
37785;SDS011;23625;48.784;9.336;2023-08-06T06:10:55;3.78;;;1.50;;
37785;SDS011;23625;48.784;9.336;2023-08-06T06:13:20;5.30;;;1.10;;
37785;SDS011;23625;48.784;9.336;2023-08-06T06:15:46;2.75;;;0.95;;
37785;SDS011;23625;48.784;9.336;2023-08-06T06:18:12;4.80;;;1.50;;
37785;SDS011;23625;48.784;9.336;2023-08-06T06:20:38;3.95;;;1.20;;
37785;SDS011;23625;48.784;9.336;2023-08-06T06:23:04;4.68;;;1.23;;
37785;SDS011;23625;48.784;9.336;2023-08-06T06:25:29;4.80;;;1.33;;
37785;SDS011;23625;48.784;9.336;2023-08-06T06:27:55;4.85;;;1.00;;
37785;SDS011;23625;48.784;9.336;2023-08-06T06:30:21;1.45;;;0.75;;
37785;SDS011;23625;48.784;9.336;2023-08-06T06:32:46;3.75;;;1.30;;
37785;SDS011;23625;48.784;9.336;2023-08-06T06:35:12;2.20;;;0.75;;
37785;SDS011;23625;48.784;9.336;2023-08-06T06:37:38;3.67;;;0.80;;
37785;SDS011;23625;48.784;9.336;2023-08-06T06:40:03;3.33;;;0.68;;
37785;SDS011;23625;48.784;9.336;2023-08-06T06:42:29;2.70;;;0.82;;
37785;SDS011;23625;48.784;9.336;2023-08-06T06:44:55;1.77;;;0.80;;
37785;SDS011;23625;48.784;9.336;2023-08-06T06:47:21;4.50;;;1.13;;
37785;SDS011;23625;48.784;9.336;2023-08-06T06:49:46;8.95;;;1.05;;
37785;SDS011;23625;48.784;9.336;2023-08-06T06:52:12;3.92;;;0.90;;
37785;SDS011;23625;48.784;9.336;2023-08-06T06:54:37;2.70;;;0.65;;
37785;SDS011;23625;48.784;9.336;2023-08-06T06:57:03;2.10;;;0.75;;
37785;SDS011;23625;48.784;9.336;2023-08-06T06:59:29;2.42;;;0.50;;
37785;SDS011;23625;48.784;9.336;2023-08-06T07:01:55;3.67;;;1.10;;
37785;SDS011;23625;48.784;9.336;2023-08-06T07:04:20;4.65;;;2.00;;
37785;SDS011;23625;48.784;9.336;2023-08-06T07:06:47;2.95;;;0.63;;
37785;SDS011;23625;48.784;9.336;2023-08-06T07:09:12;3.20;;;0.70;;
37785;SDS011;23625;48.784;9.336;2023-08-06T07:11:38;3.80;;;1.02;;
37785;SDS011;23625;48.784;9.336;2023-08-06T07:14:03;3.00;;;0.80;;
37785;SDS011;23625;48.784;9.336;2023-08-06T07:16:29;2.70;;;0.70;;
37785;SDS011;23625;48.784;9.336;2023-08-06T07:18:55;0.93;;;0.40;;
37785;SDS011;23625;48.784;9.336;2023-08-06T07:21:20;1.58;;;0.55;;
37785;SDS011;23625;48.784;9.336;2023-08-06T07:23:46;3.17;;;0.70;;
37785;SDS011;23625;48.784;9.336;2023-08-06T07:26:14;1.85;;;0.70;;
37785;SDS011;23625;48.784;9.336;2023-08-06T07:28:40;1.95;;;0.60;;
37785;SDS011;23625;48.784;9.336;2023-08-06T07:31:06;3.65;;;0.70;;
37785;SDS011;23625;48.784;9.336;2023-08-06T07:33:31;2.67;;;0.50;;
37785;SDS011;23625;48.784;9.336;2023-08-06T07:35:57;1.52;;;0.70;;
37785;SDS011;23625;48.784;9.336;2023-08-06T07:38:22;1.55;;;0.43;;
37785;SDS011;23625;48.784;9.336;2023-08-06T07:40:48;4.20;;;0.80;;
37785;SDS011;23625;48.784;9.336;2023-08-06T07:43:13;1.27;;;0.50;;
37785;SDS011;23625;48.784;9.336;2023-08-06T07:45:39;1.15;;;0.60;;
37785;SDS011;23625;48.784;9.336;2023-08-06T07:48:05;1.35;;;0.52;;
37785;SDS011;23625;48.784;9.336;2023-08-06T07:50:30;1.00;;;0.40;;
37785;SDS011;23625;48.784;9.336;2023-08-06T07:52:56;1.48;;;0.50;;
37785;SDS011;23625;48.784;9.336;2023-08-06T07:55:21;0.68;;;0.43;;
37785;SDS011;23625;48.784;9.336;2023-08-06T07:57:47;1.08;;;0.45;;
37785;SDS011;23625;48.784;9.336;2023-08-06T08:00:13;4.20;;;0.50;;
37785;SDS011;23625;48.784;9.336;2023-08-06T08:02:38;0.52;;;0.30;;
37785;SDS011;23625;48.784;9.336;2023-08-06T08:05:04;0.60;;;0.35;;
37785;SDS011;23625;48.784;9.336;2023-08-06T08:07:32;0.63;;;0.20;;
37785;SDS011;23625;48.784;9.336;2023-08-06T08:09:57;0.38;;;0.20;;
37785;SDS011;23625;48.784;9.336;2023-08-06T08:12:23;0.35;;;0.30;;
37785;SDS011;23625;48.784;9.336;2023-08-06T08:14:49;1.85;;;0.10;;
37785;SDS011;23625;48.784;9.336;2023-08-06T08:17:14;0.82;;;0.20;;
37785;SDS011;23625;48.784;9.336;2023-08-06T08:19:40;0.80;;;0.15;;
37785;SDS011;23625;48.784;9.336;2023-08-06T08:22:06;0.60;;;0.28;;
37785;SDS011;23625;48.784;9.336;2023-08-06T08:24:32;1.55;;;0.20;;
37785;SDS011;23625;48.784;9.336;2023-08-06T08:26:58;0.55;;;0.30;;
37785;SDS011;23625;48.784;9.336;2023-08-06T08:29:23;0.50;;;0.17;;
37785;SDS011;23625;48.784;9.336;2023-08-06T08:31:49;0.22;;;0.20;;
37785;SDS011;23625;48.784;9.336;2023-08-06T08:34:18;0.32;;;0.15;;
37785;SDS011;23625;48.784;9.336;2023-08-06T08:36:44;0.10;;;0.10;;
37785;SDS011;23625;48.784;9.336;2023-08-06T08:39:12;2.08;;;0.25;;
37785;SDS011;23625;48.784;9.336;2023-08-06T08:41:38;0.30;;;0.20;;
37785;SDS011;23625;48.784;9.336;2023-08-06T08:44:05;0.50;;;0.20;;
37785;SDS011;23625;48.784;9.336;2023-08-06T08:46:36;0.45;;;0.22;;
37785;SDS011;23625;48.784;9.336;2023-08-06T08:49:03;0.35;;;0.20;;
37785;SDS011;23625;48.784;9.336;2023-08-06T08:51:29;0.65;;;0.20;;
37785;SDS011;23625;48.784;9.336;2023-08-06T08:53:56;1.98;;;0.20;;
37785;SDS011;23625;48.784;9.336;2023-08-06T08:56:22;0.20;;;0.20;;
37785;SDS011;23625;48.784;9.336;2023-08-06T08:58:48;0.50;;;0.20;;
37785;SDS011;23625;48.784;9.336;2023-08-06T09:01:15;0.10;;;0.10;;
37785;SDS011;23625;48.784;9.336;2023-08-06T09:03:41;0.13;;;0.10;;
37785;SDS011;23625;48.784;9.336;2023-08-06T09:06:09;0.35;;;0.10;;
37785;SDS011;23625;48.784;9.336;2023-08-06T09:08:37;0.10;;;0.10;;
37785;SDS011;23625;48.784;9.336;2023-08-06T09:11:09;2.50;;;0.80;;
37785;SDS011;23625;48.784;9.336;2023-08-06T09:13:37;0.20;;;0.20;;
37785;SDS011;23625;48.784;9.336;2023-08-06T09:16:03;0.20;;;0.20;;
37785;SDS011;23625;48.784;9.336;2023-08-06T09:18:29;0.90;;;0.20;;
37785;SDS011;23625;48.784;9.336;2023-08-06T09:20:58;2.55;;;0.13;;
37785;SDS011;23625;48.784;9.336;2023-08-06T09:23:27;0.90;;;0.17;;
37785;SDS011;23625;48.784;9.336;2023-08-06T09:25:55;0.50;;;0.10;;
37785;SDS011;23625;48.784;9.336;2023-08-06T09:28:21;0.38;;;0.10;;
37785;SDS011;23625;48.784;9.336;2023-08-06T09:30:48;0.90;;;0.10;;
37785;SDS011;23625;48.784;9.336;2023-08-06T09:33:17;1.55;;;0.10;;
37785;SDS011;23625;48.784;9.336;2023-08-06T09:35:45;0.10;;;0.10;;
37785;SDS011;23625;48.784;9.336;2023-08-06T09:38:12;0.55;;;0.15;;
37785;SDS011;23625;48.784;9.336;2023-08-06T09:40:38;0.38;;;0.10;;
37785;SDS011;23625;48.784;9.336;2023-08-06T09:43:05;1.13;;;0.30;;
37785;SDS011;23625;48.784;9.336;2023-08-06T09:48:08;0.10;;;0.10;;
37785;SDS011;23625;48.784;9.336;2023-08-06T09:50:35;0.45;;;0.10;;
37785;SDS011;23625;48.784;9.336;2023-08-06T09:53:03;0.20;;;0.10;;
37785;SDS011;23625;48.784;9.336;2023-08-06T09:55:29;0.10;;;0.10;;
37785;SDS011;23625;48.784;9.336;2023-08-06T09:57:56;0.13;;;0.10;;
37785;SDS011;23625;48.784;9.336;2023-08-06T10:00:22;0.10;;;0.10;;
37785;SDS011;23625;48.784;9.336;2023-08-06T10:02:48;0.30;;;0.30;;
37785;SDS011;23625;48.784;9.336;2023-08-06T10:05:16;0.47;;;0.10;;
37785;SDS011;23625;48.784;9.336;2023-08-06T10:07:43;0.10;;;0.10;;
37785;SDS011;23625;48.784;9.336;2023-08-06T10:10:10;0.95;;;0.10;;
37785;SDS011;23625;48.784;9.336;2023-08-06T10:12:37;0.20;;;0.13;;
37785;SDS011;23625;48.784;9.336;2023-08-06T10:15:07;0.63;;;0.20;;
37785;SDS011;23625;48.784;9.336;2023-08-06T10:17:35;0.10;;;0.10;;
37785;SDS011;23625;48.784;9.336;2023-08-06T10:20:03;0.17;;;0.17;;
37785;SDS011;23625;48.784;9.336;2023-08-06T10:22:32;0.85;;;0.10;;
37785;SDS011;23625;48.784;9.336;2023-08-06T10:24:58;0.10;;;0.10;;
37785;SDS011;23625;48.784;9.336;2023-08-06T10:32:58;0.43;;;0.22;;
37785;SDS011;23625;48.784;9.336;2023-08-06T10:35:35;0.10;;;0.10;;
37785;SDS011;23625;48.784;9.336;2023-08-06T10:43:27;0.70;;;0.10;;
37785;SDS011;23625;48.784;9.336;2023-08-06T10:45:55;0.10;;;0.10;;
37785;SDS011;23625;48.784;9.336;2023-08-06T10:48:33;0.15;;;0.10;;
37785;SDS011;23625;48.784;9.336;2023-08-06T10:51:01;0.30;;;0.15;;
37785;SDS011;23625;48.784;9.336;2023-08-06T10:53:27;2.00;;;0.20;;
37785;SDS011;23625;48.784;9.336;2023-08-06T10:55:52;0.20;;;0.20;;
37785;SDS011;23625;48.784;9.336;2023-08-06T10:58:18;0.32;;;0.17;;
37785;SDS011;23625;48.784;9.336;2023-08-06T11:00:44;0.10;;;0.10;;
37785;SDS011;23625;48.784;9.336;2023-08-06T11:03:10;2.00;;;0.20;;
37785;SDS011;23625;48.784;9.336;2023-08-06T11:05:36;0.00;;;0.00;;
37785;SDS011;23625;48.784;9.336;2023-08-06T11:08:02;1.10;;;0.30;;
37785;SDS011;23625;48.784;9.336;2023-08-06T11:10:27;1.00;;;0.10;;
37785;SDS011;23625;48.784;9.336;2023-08-06T11:12:53;0.25;;;0.10;;
37785;SDS011;23625;48.784;9.336;2023-08-06T11:15:20;0.10;;;0.10;;
37785;SDS011;23625;48.784;9.336;2023-08-06T11:17:46;0.28;;;0.10;;
37785;SDS011;23625;48.784;9.336;2023-08-06T11:20:12;0.30;;;0.30;;
37785;SDS011;23625;48.784;9.336;2023-08-06T11:22:38;0.10;;;0.10;;
37785;SDS011;23625;48.784;9.336;2023-08-06T11:25:05;0.20;;;0.20;;
37785;SDS011;23625;48.784;9.336;2023-08-06T11:27:31;0.10;;;0.10;;
37785;SDS011;23625;48.784;9.336;2023-08-06T11:29:57;0.20;;;0.10;;
37785;SDS011;23625;48.784;9.336;2023-08-06T11:32:23;1.23;;;0.30;;
37785;SDS011;23625;48.784;9.336;2023-08-06T11:34:48;0.63;;;0.30;;
37785;SDS011;23625;48.784;9.336;2023-08-06T11:37:14;0.63;;;0.40;;
37785;SDS011;23625;48.784;9.336;2023-08-06T11:39:45;3.45;;;0.30;;
37785;SDS011;23625;48.784;9.336;2023-08-06T11:42:13;0.60;;;0.30;;
37785;SDS011;23625;48.784;9.336;2023-08-06T11:44:40;1.25;;;0.93;;
37785;SDS011;23625;48.784;9.336;2023-08-06T11:47:11;1.10;;;0.40;;
37785;SDS011;23625;48.784;9.336;2023-08-06T11:49:48;0.98;;;0.50;;
37785;SDS011;23625;48.784;9.336;2023-08-06T11:52:15;3.40;;;0.30;;
37785;SDS011;23625;48.784;9.336;2023-08-06T11:54:43;3.00;;;0.65;;
37785;SDS011;23625;48.784;9.336;2023-08-06T11:57:10;0.80;;;0.60;;
37785;SDS011;23625;48.784;9.336;2023-08-06T11:59:37;0.50;;;0.50;;
37785;SDS011;23625;48.784;9.336;2023-08-06T12:02:04;1.33;;;0.57;;
37785;SDS011;23625;48.784;9.336;2023-08-06T12:04:50;0.63;;;0.63;;
37785;SDS011;23625;48.784;9.336;2023-08-06T12:07:30;2.45;;;0.68;;
37785;SDS011;23625;48.784;9.336;2023-08-06T12:10:02;0.90;;;0.70;;
37785;SDS011;23625;48.784;9.336;2023-08-06T12:12:28;1.33;;;0.80;;
37785;SDS011;23625;48.784;9.336;2023-08-06T12:14:54;0.85;;;0.60;;
37785;SDS011;23625;48.784;9.336;2023-08-06T12:17:20;1.45;;;0.80;;
37785;SDS011;23625;48.784;9.336;2023-08-06T12:19:46;2.08;;;1.00;;
37785;SDS011;23625;48.784;9.336;2023-08-06T12:22:12;2.40;;;0.63;;
37785;SDS011;23625;48.784;9.336;2023-08-06T12:24:39;1.52;;;0.63;;
37785;SDS011;23625;48.784;9.336;2023-08-06T12:27:08;3.28;;;0.90;;
37785;SDS011;23625;48.784;9.336;2023-08-06T12:29:34;2.05;;;0.93;;
37785;SDS011;23625;48.784;9.336;2023-08-06T12:31:59;1.27;;;0.75;;
37785;SDS011;23625;48.784;9.336;2023-08-06T12:34:25;2.25;;;1.15;;
37785;SDS011;23625;48.784;9.336;2023-08-06T12:36:51;2.55;;;0.90;;
37785;SDS011;23625;48.784;9.336;2023-08-06T12:39:16;1.30;;;0.80;;
37785;SDS011;23625;48.784;9.336;2023-08-06T12:41:42;4.45;;;1.40;;
37785;SDS011;23625;48.784;9.336;2023-08-06T12:44:08;1.33;;;0.95;;
37785;SDS011;23625;48.784;9.336;2023-08-06T12:46:34;1.90;;;0.73;;
37785;SDS011;23625;48.784;9.336;2023-08-06T12:49:00;2.53;;;0.98;;
37785;SDS011;23625;48.784;9.336;2023-08-06T12:51:25;2.30;;;1.15;;
37785;SDS011;23625;48.784;9.336;2023-08-06T12:53:51;7.65;;;1.02;;
37785;SDS011;23625;48.784;9.336;2023-08-06T12:56:16;2.45;;;1.23;;
37785;SDS011;23625;48.784;9.336;2023-08-06T12:58:42;1.52;;;0.80;;
37785;SDS011;23625;48.784;9.336;2023-08-06T13:01:08;2.90;;;1.00;;
37785;SDS011;23625;48.784;9.336;2023-08-06T13:03:33;1.33;;;0.93;;
37785;SDS011;23625;48.784;9.336;2023-08-06T13:05:59;1.38;;;1.02;;
37785;SDS011;23625;48.784;9.336;2023-08-06T13:08:24;0.55;;;0.55;;
37785;SDS011;23625;48.784;9.336;2023-08-06T13:10:50;1.58;;;0.73;;
37785;SDS011;23625;48.784;9.336;2023-08-06T13:13:15;0.93;;;0.80;;
37785;SDS011;23625;48.784;9.336;2023-08-06T13:15:41;2.72;;;1.15;;
37785;SDS011;23625;48.784;9.336;2023-08-06T13:18:06;2.70;;;1.08;;
37785;SDS011;23625;48.784;9.336;2023-08-06T13:20:32;2.78;;;0.65;;
37785;SDS011;23625;48.784;9.336;2023-08-06T13:22:58;0.70;;;0.70;;
37785;SDS011;23625;48.784;9.336;2023-08-06T13:25:26;2.58;;;0.70;;
37785;SDS011;23625;48.784;9.336;2023-08-06T13:27:53;1.10;;;0.70;;
37785;SDS011;23625;48.784;9.336;2023-08-06T13:30:19;2.65;;;0.85;;
37785;SDS011;23625;48.784;9.336;2023-08-06T13:32:45;1.90;;;0.70;;
37785;SDS011;23625;48.784;9.336;2023-08-06T13:35:11;2.63;;;0.90;;
37785;SDS011;23625;48.784;9.336;2023-08-06T13:37:36;0.90;;;0.70;;
37785;SDS011;23625;48.784;9.336;2023-08-06T13:40:02;5.40;;;2.80;;
37785;SDS011;23625;48.784;9.336;2023-08-06T13:42:28;0.80;;;0.77;;
37785;SDS011;23625;48.784;9.336;2023-08-06T13:44:54;1.70;;;0.80;;
37785;SDS011;23625;48.784;9.336;2023-08-06T13:47:27;1.55;;;0.90;;
37785;SDS011;23625;48.784;9.336;2023-08-06T13:49:52;0.85;;;0.65;;
37785;SDS011;23625;48.784;9.336;2023-08-06T13:52:18;0.60;;;0.60;;
37785;SDS011;23625;48.784;9.336;2023-08-06T13:54:44;0.88;;;0.52;;
37785;SDS011;23625;48.784;9.336;2023-08-06T13:57:09;2.10;;;0.50;;
37785;SDS011;23625;48.784;9.336;2023-08-06T13:59:35;3.83;;;0.50;;
37785;SDS011;23625;48.784;9.336;2023-08-06T14:02:00;0.90;;;0.47;;
37785;SDS011;23625;48.784;9.336;2023-08-06T14:04:26;1.55;;;0.40;;
37785;SDS011;23625;48.784;9.336;2023-08-06T14:06:52;2.00;;;0.70;;
37785;SDS011;23625;48.784;9.336;2023-08-06T14:09:17;0.60;;;0.52;;
37785;SDS011;23625;48.784;9.336;2023-08-06T14:11:43;0.50;;;0.40;;
37785;SDS011;23625;48.784;9.336;2023-08-06T14:14:09;0.80;;;0.50;;
37785;SDS011;23625;48.784;9.336;2023-08-06T14:16:35;3.22;;;0.63;;
37785;SDS011;23625;48.784;9.336;2023-08-06T14:19:01;1.85;;;0.60;;
37785;SDS011;23625;48.784;9.336;2023-08-06T14:21:27;0.75;;;0.50;;
37785;SDS011;23625;48.784;9.336;2023-08-06T14:23:53;0.75;;;0.40;;
37785;SDS011;23625;48.784;9.336;2023-08-06T14:26:18;2.58;;;0.63;;
37785;SDS011;23625;48.784;9.336;2023-08-06T14:28:44;0.50;;;0.50;;
37785;SDS011;23625;48.784;9.336;2023-08-06T14:31:09;0.95;;;0.50;;
37785;SDS011;23625;48.784;9.336;2023-08-06T14:33:36;1.85;;;0.68;;
37785;SDS011;23625;48.784;9.336;2023-08-06T14:36:01;0.75;;;0.65;;
37785;SDS011;23625;48.784;9.336;2023-08-06T14:38:27;1.05;;;0.70;;
37785;SDS011;23625;48.784;9.336;2023-08-06T14:40:52;0.70;;;0.50;;
37785;SDS011;23625;48.784;9.336;2023-08-06T14:43:18;1.20;;;0.43;;
37785;SDS011;23625;48.784;9.336;2023-08-06T14:45:44;3.25;;;1.20;;
37785;SDS011;23625;48.784;9.336;2023-08-06T14:48:10;2.03;;;1.10;;
37785;SDS011;23625;48.784;9.336;2023-08-06T14:50:36;1.35;;;0.80;;
37785;SDS011;23625;48.784;9.336;2023-08-06T14:53:03;7.15;;;1.25;;
37785;SDS011;23625;48.784;9.336;2023-08-06T14:55:29;2.47;;;1.58;;
37785;SDS011;23625;48.784;9.336;2023-08-06T14:57:55;1.27;;;0.40;;
37785;SDS011;23625;48.784;9.336;2023-08-06T15:00:20;3.38;;;0.60;;
37785;SDS011;23625;48.784;9.336;2023-08-06T15:02:46;1.02;;;0.40;;
37785;SDS011;23625;48.784;9.336;2023-08-06T15:05:12;0.50;;;0.40;;